createdAt,value
2022-11-28T00:01:44.628Z,88.26
2022-11-28T00:04:13.670Z,88.26
2022-11-28T00:06:48.247Z,87.92
2022-11-28T00:09:18.119Z,88.04
2022-11-28T00:11:47.358Z,88.11
2022-11-28T00:14:16.471Z,87.87
2022-11-28T00:16:44.572Z,87.78
2022-11-28T00:19:13.092Z,87.73
2022-11-28T00:21:41.755Z,87.99
2022-11-28T00:24:10.864Z,87.90
2022-11-28T00:26:41.229Z,87.97
2022-11-28T00:29:10.325Z,88.04
2022-11-28T00:31:43.456Z,88.16
2022-11-28T00:34:13.263Z,88.33
2022-11-28T00:36:41.272Z,88.30
2022-11-28T00:39:09.015Z,88.13
2022-11-28T00:41:36.800Z,88.23
2022-11-28T00:44:04.521Z,88.21
2022-11-28T00:46:32.177Z,88.23
2022-11-28T00:49:00.420Z,88.16
2022-11-28T00:51:33.598Z,87.83
2022-11-28T00:54:03.442Z,87.87
2022-11-28T00:56:37.463Z,87.87
2022-11-28T00:59:05.475Z,87.77
2022-11-28T01:01:36.059Z,87.74
2022-11-28T01:04:06.487Z,87.73
2022-11-28T01:06:39.937Z,87.80
2022-11-28T01:09:11.934Z,87.83
2022-11-28T01:11:41.375Z,87.77
2022-11-28T01:14:10.546Z,87.88
2022-11-28T01:16:38.832Z,87.89
2022-11-28T01:19:07.419Z,87.79
2022-11-28T01:21:35.940Z,87.64
2022-11-28T01:24:03.886Z,87.61
2022-11-28T01:26:31.923Z,87.55
2022-11-28T01:29:01.382Z,87.29
2022-11-28T01:31:30.369Z,87.41
2022-11-28T01:33:59.311Z,87.30
2022-11-28T01:36:28.213Z,87.30
2022-11-28T01:38:56.211Z,86.94
2022-11-28T01:41:26.857Z,87.15
2022-11-28T01:44:27.062Z,87.12
2022-11-28T01:46:54.841Z,86.95
2022-11-28T01:49:38.636Z,86.67
2022-11-28T01:52:13.213Z,86.38
2022-11-28T01:54:45.309Z,86.57
2022-11-28T01:57:17.927Z,86.34
2022-11-28T01:59:57.281Z,86.59
2022-11-28T02:02:33.535Z,86.33
2022-11-28T02:05:01.835Z,86.49
2022-11-28T02:07:29.577Z,86.48
2022-11-28T02:09:57.809Z,86.67
2022-11-28T02:12:56.501Z,86.77
2022-11-28T02:15:37.752Z,87.01
2022-11-28T02:18:11.160Z,87.26
2022-11-28T02:21:14.850Z,87.44
2022-11-28T02:23:54.770Z,87.88
2022-11-28T02:26:40.924Z,87.79
2022-11-28T02:29:08.472Z,87.91
2022-11-28T02:32:02.572Z,88.32
2022-11-28T02:34:54.980Z,88.28
2022-11-28T02:37:45.731Z,88.17
2022-11-28T02:40:23.843Z,88.15
2022-11-28T02:43:15.312Z,88.12
2022-11-28T02:46:03.967Z,88.34
2022-11-28T02:48:52.616Z,88.25
2022-11-28T02:51:32.561Z,88.51
2022-11-28T02:54:02.534Z,88.36
2022-11-28T02:56:30.255Z,88.40
2022-11-28T02:58:57.978Z,88.55
2022-11-28T03:01:32.190Z,88.42
2022-11-28T03:04:08.037Z,88.63
2022-11-28T03:07:10.009Z,88.68
2022-11-28T03:10:07.076Z,88.35
2022-11-28T03:12:53.323Z,88.37
2022-11-28T03:15:33.484Z,88.06
2022-11-28T03:18:16.932Z,87.90
2022-11-28T03:21:15.271Z,88.29
2022-11-28T03:24:12.157Z,88.16
2022-11-28T03:26:49.281Z,87.73
2022-11-28T03:29:23.319Z,88.12
2022-11-28T03:31:59.471Z,88.18
2022-11-28T03:34:34.035Z,87.87
2022-11-28T03:37:06.490Z,87.58
2022-11-28T03:39:39.420Z,87.78
2022-11-28T03:42:18.932Z,87.56
2022-11-28T03:44:53.746Z,87.61
2022-11-28T03:47:23.240Z,87.70
2022-11-28T03:49:54.219Z,87.61
2022-11-28T03:52:30.815Z,88.00
2022-11-28T03:55:03.155Z,87.90
2022-11-28T03:57:46.509Z,87.87
2022-11-28T04:00:15.096Z,87.75
2022-11-28T04:02:58.005Z,87.79
2022-11-28T04:05:48.893Z,88.14
2022-11-28T04:08:21.851Z,88.00
2022-11-28T04:11:09.784Z,87.75
2022-11-28T04:14:01.716Z,88.14
2022-11-28T04:16:55.894Z,87.96
2022-11-28T04:19:31.926Z,87.89
2022-11-28T04:22:11.787Z,87.98
2022-11-28T04:24:46.466Z,87.61
2022-11-28T04:27:19.940Z,87.68
2022-11-28T04:29:52.067Z,87.53
2022-11-28T04:32:21.720Z,87.13
2022-11-28T04:34:54.746Z,87.18
2022-11-28T04:37:24.261Z,86.78
2022-11-28T04:39:53.582Z,87.18
2022-11-28T04:42:36.574Z,87.36
2022-11-28T04:45:17.339Z,87.23
2022-11-28T04:47:46.544Z,86.78
2022-11-28T04:50:14.679Z,86.92
2022-11-28T04:52:45.206Z,86.98
2022-11-28T04:55:35.922Z,87.14
2022-11-28T04:58:09.416Z,87.41
2022-11-28T05:00:39.369Z,87.77
2022-11-28T05:03:08.635Z,88.00
2022-11-28T05:05:50.660Z,87.88
2022-11-28T05:08:19.666Z,88.12
2022-11-28T05:10:47.958Z,88.31
2022-11-28T05:13:15.590Z,88.27
2022-11-28T05:15:43.247Z,88.91
2022-11-28T05:18:10.970Z,88.75
2022-11-28T05:20:40.239Z,88.74
2022-11-28T05:23:08.088Z,89.35
2022-11-28T05:25:35.749Z,89.14
2022-11-28T05:28:03.401Z,89.16
2022-11-28T05:30:31.127Z,89.33
2022-11-28T05:33:00.372Z,89.53
2022-11-28T05:35:28.177Z,89.42
2022-11-28T05:37:55.857Z,89.31
2022-11-28T05:40:23.444Z,89.36
2022-11-28T05:42:51.215Z,89.57
2022-11-28T05:45:18.905Z,89.76
2022-11-28T05:47:46.571Z,90.38
2022-11-28T05:50:14.343Z,90.22
2022-11-28T05:52:42.052Z,90.29
2022-11-28T05:55:10.281Z,90.14
2022-11-28T05:57:37.963Z,89.87
2022-11-28T06:00:06.121Z,89.97
2022-11-28T06:02:36.924Z,90.07
2022-11-28T06:05:27.243Z,90.00
2022-11-28T06:07:52.539Z,90.02
2022-11-28T06:10:20.466Z,89.81
2022-11-28T06:12:48.130Z,89.72
2022-11-28T06:15:16.109Z,89.59
2022-11-28T06:17:43.772Z,89.77
2022-11-28T06:20:11.660Z,90.04
2022-11-28T06:22:39.262Z,89.87
2022-11-28T06:25:07.125Z,89.70
2022-11-28T06:27:37.053Z,89.98
2022-11-28T06:30:05.469Z,89.91
2022-11-28T06:32:33.228Z,89.74
2022-11-28T06:35:00.907Z,89.76
2022-11-28T06:37:29.428Z,89.70
2022-11-28T06:39:57.123Z,89.38
2022-11-28T06:42:24.739Z,89.48
2022-11-28T06:44:52.426Z,89.04
2022-11-28T06:47:20.055Z,88.79
2022-11-28T06:49:49.833Z,88.89
2022-11-28T06:52:17.460Z,88.97
2022-11-28T06:54:45.797Z,89.14
2022-11-28T06:57:13.779Z,89.47
2022-11-28T06:59:41.901Z,89.15
2022-11-28T07:02:12.209Z,89.27
2022-11-28T07:04:39.852Z,89.41
2022-11-28T07:07:07.498Z,89.34
2022-11-28T07:09:35.236Z,89.45
2022-11-28T07:12:03.097Z,89.49
2022-11-28T07:14:34.253Z,89.83
2022-11-28T07:17:02.318Z,89.48
2022-11-28T07:19:30.022Z,89.74
2022-11-28T07:21:57.668Z,89.76
2022-11-28T07:24:25.613Z,89.47
2022-11-28T07:26:53.269Z,89.47
2022-11-28T07:29:21.000Z,89.43
2022-11-28T07:31:48.867Z,89.03
2022-11-28T07:34:16.514Z,88.86
2022-11-28T07:36:44.191Z,88.97
2022-11-28T07:39:15.723Z,88.61
2022-11-28T07:41:43.320Z,88.54
2022-11-28T07:44:12.522Z,88.62
2022-11-28T07:46:40.444Z,88.52
2022-11-28T07:49:08.184Z,88.37
2022-11-28T07:51:35.971Z,88.02
2022-11-28T07:54:04.762Z,88.11
2022-11-28T07:57:04.665Z,87.96
2022-11-28T07:59:23.139Z,87.67
2022-11-28T08:01:50.924Z,87.55
2022-11-28T08:04:18.607Z,87.31
2022-11-28T08:06:46.322Z,87.20
2022-11-28T08:09:13.927Z,87.45
2022-11-28T08:11:42.302Z,87.38
2022-11-28T08:14:10.466Z,87.17
2022-11-28T08:16:38.187Z,87.23
2022-11-28T08:19:05.971Z,87.42
2022-11-28T08:21:34.431Z,87.44
2022-11-28T08:24:03.350Z,87.39
2022-11-28T08:26:32.890Z,87.26
2022-11-28T08:29:02.407Z,87.24
2022-11-28T08:31:36.811Z,87.03
2022-11-28T08:34:07.560Z,86.94
2022-11-28T08:36:35.562Z,86.92
2022-11-28T08:41:53.588Z,86.62
2022-11-28T08:44:21.278Z,86.43
2022-11-28T08:46:48.953Z,86.23
2022-11-28T08:49:17.177Z,86.13
2022-11-28T08:51:45.000Z,85.98
2022-11-28T08:54:12.814Z,86.00
2022-11-28T08:56:40.639Z,85.61
2022-11-28T08:59:08.456Z,85.83
2022-11-28T09:01:36.224Z,85.55
2022-11-28T09:04:05.386Z,84.23
2022-11-28T09:06:33.177Z,85.05
2022-11-28T09:09:00.813Z,85.05
2022-11-28T09:11:28.471Z,84.85
2022-11-28T09:13:56.879Z,85.03
2022-11-28T09:16:24.676Z,85.19
2022-11-28T09:18:52.315Z,84.89
2022-11-28T09:21:20.133Z,85.21
2022-11-28T09:23:48.003Z,84.80
2022-11-28T09:26:20.614Z,85.03
2022-11-28T09:28:48.759Z,85.27
2022-11-28T09:31:18.605Z,85.33
2022-11-28T09:33:47.525Z,85.36
2022-11-28T09:36:18.173Z,85.20
2022-11-28T09:38:46.231Z,85.23
2022-11-28T09:41:40.230Z,85.24
2022-11-28T09:44:36.231Z,85.23
2022-11-28T09:47:09.979Z,85.08
2022-11-28T09:50:11.682Z,85.02
2022-11-28T09:52:50.459Z,84.73
2022-11-28T09:55:36.616Z,84.85
2022-11-28T09:58:17.183Z,84.83
2022-11-28T10:01:02.336Z,84.68
2022-11-28T10:03:50.210Z,84.71
2022-11-28T10:06:35.138Z,84.47
2022-11-28T10:09:16.829Z,84.33
2022-11-28T10:12:16.776Z,84.31
2022-11-28T10:14:53.568Z,84.15
2022-11-28T10:17:54.597Z,83.83
2022-11-28T10:20:26.673Z,83.60
2022-11-28T10:23:03.884Z,83.77
2022-11-28T10:25:50.650Z,83.68
2022-11-28T10:28:27.321Z,83.68
2022-11-28T10:31:08.218Z,83.59
2022-11-28T10:33:55.092Z,83.11
2022-11-28T10:36:30.388Z,83.11
2022-11-28T10:38:58.613Z,83.08
2022-11-28T10:41:38.246Z,83.03
2022-11-28T10:44:28.497Z,83.02
2022-11-28T10:47:14.448Z,82.72
2022-11-28T10:50:05.760Z,82.44
2022-11-28T10:52:49.694Z,82.40
2022-11-28T10:55:27.844Z,82.49
2022-11-28T10:58:01.506Z,82.54
2022-11-28T11:00:29.347Z,82.72
2022-11-28T11:03:01.478Z,82.73
2022-11-28T11:05:32.480Z,82.65
2022-11-28T11:08:13.947Z,82.66
2022-11-28T11:10:51.981Z,82.67
2022-11-28T11:13:24.657Z,82.67
2022-11-28T11:16:03.433Z,82.70
2022-11-28T11:18:33.219Z,82.74
2022-11-28T11:21:21.020Z,82.92
2022-11-28T11:23:50.003Z,82.83
2022-11-28T11:26:40.447Z,82.80
2022-11-28T11:29:20.648Z,82.96
2022-11-28T11:31:53.400Z,82.98
2022-11-28T11:34:23.779Z,83.01
2022-11-28T11:36:52.731Z,83.04
2022-11-28T11:39:23.378Z,83.14
2022-11-28T11:42:10.620Z,83.40
2022-11-28T11:44:38.895Z,83.46
2022-11-28T11:47:11.431Z,83.63
2022-11-28T11:49:45.296Z,83.73
2022-11-28T11:52:16.143Z,83.68
2022-11-28T11:54:59.054Z,83.83
2022-11-28T11:57:33.971Z,83.63
2022-11-28T12:00:12.093Z,83.73
2022-11-28T12:03:01.171Z,83.56
2022-11-28T12:06:13.227Z,83.31
2022-11-28T12:08:50.435Z,83.43
2022-11-28T12:11:32.629Z,83.28
2022-11-28T12:14:14.982Z,83.02
2022-11-28T12:16:53.757Z,82.97
2022-11-28T12:19:49.095Z,82.90
2022-11-28T12:22:29.535Z,82.34
2022-11-28T12:25:16.237Z,82.43
2022-11-28T12:27:52.619Z,82.25
2022-11-28T12:30:44.614Z,82.34
2022-11-28T12:33:18.741Z,82.09
2022-11-28T12:36:21.537Z,82.09
2022-11-28T12:39:27.097Z,81.89
2022-11-28T12:42:02.696Z,81.32
2022-11-28T12:44:36.550Z,81.63
2022-11-28T12:47:28.856Z,81.35
2022-11-28T12:50:27.429Z,81.14
2022-11-28T12:53:32.276Z,81.01
2022-11-28T12:56:08.861Z,81.13
2022-11-28T12:58:55.110Z,81.10
2022-11-28T13:01:50.820Z,81.13
2022-11-28T13:04:33.651Z,81.02
2022-11-28T13:07:28.920Z,81.25
2022-11-28T13:10:25.753Z,81.16
2022-11-28T13:13:25.873Z,81.25
2022-11-28T13:16:02.255Z,81.05
2022-11-28T13:18:55.910Z,81.19
2022-11-28T13:21:45.221Z,81.15
2022-11-28T13:24:30.214Z,81.18
2022-11-28T13:27:01.484Z,81.01
2022-11-28T13:29:35.028Z,81.12
2022-11-28T13:32:09.034Z,81.11
2022-11-28T13:34:38.629Z,81.04
2022-11-28T13:40:27.810Z,80.89
2022-11-28T13:43:07.917Z,80.94
2022-11-28T13:45:41.433Z,80.97
2022-11-28T13:51:34.259Z,80.66
2022-11-28T13:54:22.944Z,80.61
2022-11-28T13:57:09.265Z,80.69
2022-11-28T13:59:38.004Z,80.47
2022-11-28T14:02:32.610Z,80.58
2022-11-28T14:05:00.607Z,80.52
2022-11-28T14:07:34.449Z,80.49
2022-11-28T14:10:11.072Z,80.47
2022-11-28T14:12:41.677Z,80.53
2022-11-28T14:15:33.259Z,80.44
2022-11-28T14:18:31.669Z,80.26
2022-11-28T14:21:43.388Z,80.28
2022-11-28T14:24:32.642Z,80.33
2022-11-28T14:27:06.674Z,80.49
2022-11-28T14:29:42.442Z,80.65
2022-11-28T14:32:44.862Z,80.77
2022-11-28T14:35:50.132Z,81.08
2022-11-28T14:38:33.301Z,81.07
2022-11-28T14:41:02.243Z,81.28
2022-11-28T14:43:29.971Z,81.24
2022-11-28T14:46:16.350Z,81.44
2022-11-28T14:48:59.154Z,81.58
2022-11-28T14:51:45.452Z,81.63
2022-11-28T14:54:36.684Z,81.62
2022-11-28T14:57:14.562Z,81.70
2022-11-28T14:59:42.348Z,81.84
2022-11-28T15:02:09.965Z,81.92
2022-11-28T15:05:06.705Z,81.95
2022-11-28T15:07:53.224Z,82.11
2022-11-28T15:10:34.981Z,82.03
2022-11-28T15:13:46.983Z,82.04
2022-11-28T15:16:17.829Z,81.93
2022-11-28T15:18:59.173Z,82.08
2022-11-28T15:21:26.859Z,82.36
2022-11-28T15:23:55.616Z,82.40
2022-11-28T15:26:28.950Z,82.55
2022-11-28T15:29:19.429Z,82.62
2022-11-28T15:31:49.172Z,82.79
2022-11-28T15:34:34.227Z,82.66
2022-11-28T15:37:18.399Z,82.58
2022-11-28T15:39:50.789Z,82.70
2022-11-28T15:42:35.044Z,82.70
2022-11-28T15:45:23.397Z,82.89
2022-11-28T15:47:52.906Z,82.93
2022-11-28T15:50:31.876Z,82.93
2022-11-28T15:53:20.577Z,83.04
2022-11-28T15:55:48.682Z,83.04
2022-11-28T15:58:32.171Z,82.96
2022-11-28T16:01:10.075Z,82.99
2022-11-28T16:03:47.279Z,82.99
2022-11-28T16:06:15.325Z,83.12
2022-11-28T16:08:55.979Z,83.19
2022-11-28T16:11:27.091Z,83.07
2022-11-28T16:13:58.494Z,83.23
2022-11-28T16:16:32.868Z,83.26
2022-11-28T16:19:03.611Z,83.32
2022-11-28T16:21:35.341Z,83.30
2022-11-28T16:24:04.524Z,83.33
2022-11-28T16:26:36.018Z,83.37
2022-11-28T16:29:14.615Z,83.47
2022-11-28T16:31:44.994Z,83.42
2022-11-28T16:34:16.285Z,83.46
2022-11-28T16:36:51.457Z,83.55
2022-11-28T16:39:19.268Z,83.65
2022-11-28T16:42:05.651Z,83.69
2022-11-28T16:44:34.746Z,83.79
2022-11-28T16:47:03.178Z,83.91
2022-11-28T16:49:40.612Z,84.11
2022-11-28T16:52:23.358Z,84.41
2022-11-28T16:54:54.869Z,84.49
2022-11-28T16:57:22.737Z,84.42
2022-11-28T16:59:54.644Z,84.49
2022-11-28T17:02:27.928Z,84.59
2022-11-28T17:04:55.754Z,84.71
2022-11-28T17:07:25.351Z,84.69
2022-11-28T17:09:53.089Z,84.85
2022-11-28T17:12:33.486Z,84.88
2022-11-28T17:15:01.594Z,84.89
2022-11-28T17:17:31.492Z,84.98
2022-11-28T17:19:59.226Z,85.05
2022-11-28T17:22:39.074Z,84.96
2022-11-28T17:25:14.671Z,85.02
2022-11-28T17:27:42.272Z,84.90
2022-11-28T17:30:14.677Z,84.87
2022-11-28T17:32:42.319Z,84.96
2022-11-28T17:35:18.082Z,85.04
2022-11-28T17:37:45.764Z,85.70
2022-11-28T17:40:31.918Z,85.48
2022-11-28T17:43:00.151Z,85.74
2022-11-28T17:45:29.990Z,85.61
2022-11-28T17:47:57.742Z,85.48
2022-11-28T17:50:25.439Z,85.61
2022-11-28T17:52:53.247Z,85.51
2022-11-28T17:55:21.752Z,85.76
2022-11-28T17:57:49.514Z,85.90
2022-11-28T18:00:17.965Z,85.89
2022-11-28T18:02:45.744Z,85.95
2022-11-28T18:05:13.379Z,85.86
2022-11-28T18:07:41.488Z,86.16
2022-11-28T18:10:10.060Z,86.15
2022-11-28T18:12:39.274Z,86.21
2022-11-28T18:15:07.272Z,86.19
2022-11-28T18:17:34.929Z,86.30
2022-11-28T18:20:02.766Z,86.30
2022-11-28T18:22:30.379Z,86.47
2022-11-28T18:24:58.013Z,86.39
2022-11-28T18:27:25.783Z,86.34
2022-11-28T18:29:53.523Z,86.25
2022-11-28T18:32:21.317Z,86.27
2022-11-28T18:34:48.950Z,86.31
2022-11-28T18:37:16.753Z,86.45
2022-11-28T18:39:44.585Z,86.37
2022-11-28T18:42:12.397Z,86.46
2022-11-28T18:44:40.007Z,86.37
2022-11-28T18:47:07.890Z,86.50
2022-11-28T18:49:35.561Z,86.44
2022-11-28T18:52:03.306Z,86.63
2022-11-28T18:54:32.287Z,86.45
2022-11-28T18:57:00.724Z,86.44
2022-11-28T18:59:28.403Z,86.46
2022-11-28T19:01:56.200Z,86.47
2022-11-28T19:04:24.033Z,86.56
2022-11-28T19:06:51.873Z,86.58
2022-11-28T19:09:19.939Z,86.62
2022-11-28T19:11:47.968Z,86.63
2022-11-28T19:14:17.917Z,86.75
2022-11-28T19:16:46.206Z,86.67
2022-11-28T19:19:13.913Z,86.91
2022-11-28T19:21:41.627Z,86.85
2022-11-28T19:24:09.623Z,86.91
2022-11-28T19:26:38.456Z,87.01
2022-11-28T19:29:07.536Z,87.07
2022-11-28T19:31:37.849Z,87.13
2022-11-28T19:34:14.958Z,87.03
2022-11-28T19:36:45.296Z,87.22
2022-11-28T19:39:19.031Z,87.14
2022-11-28T19:41:47.931Z,87.20
2022-11-28T19:44:16.543Z,87.24
2022-11-28T19:46:44.714Z,87.18
2022-11-28T19:49:19.171Z,87.15
2022-11-28T19:51:48.294Z,87.23
2022-11-28T19:54:17.651Z,87.21
2022-11-28T19:56:45.358Z,87.22
2022-11-28T19:59:14.183Z,87.23
2022-11-28T20:01:41.917Z,87.21
2022-11-28T20:04:10.468Z,87.08
2022-11-28T20:06:38.204Z,86.96
2022-11-28T20:09:09.913Z,86.87
2022-11-28T20:11:38.899Z,86.48
2022-11-28T20:14:11.004Z,86.32
2022-11-28T20:16:39.218Z,86.57
2022-11-28T20:19:08.170Z,86.57
2022-11-28T20:21:36.581Z,86.98
2022-11-28T20:24:08.401Z,86.89
2022-11-28T20:26:39.601Z,87.09
2022-11-28T20:29:08.557Z,87.24
2022-11-28T20:31:39.135Z,87.27
2022-11-28T20:34:07.614Z,87.11
2022-11-28T20:36:35.357Z,87.20
2022-11-28T20:39:03.142Z,87.28
2022-11-28T20:41:31.356Z,87.22
2022-11-28T20:44:01.808Z,86.92
2022-11-28T20:46:32.017Z,87.00
2022-11-28T20:49:02.629Z,86.59
2022-11-28T20:51:32.469Z,86.52
2022-11-28T20:54:00.822Z,86.53
2022-11-28T20:56:31.536Z,86.33
2022-11-28T20:59:01.752Z,86.01
2022-11-28T21:01:34.426Z,85.63
2022-11-28T21:04:04.287Z,85.84
2022-11-28T21:06:32.087Z,85.70
2022-11-28T21:09:00.308Z,85.67
2022-11-28T21:11:55.543Z,85.42
2022-11-28T21:14:16.687Z,85.58
2022-11-28T21:16:44.844Z,85.64
2022-11-28T21:19:12.900Z,85.64
2022-11-28T21:21:42.045Z,85.74
2022-11-28T21:24:12.678Z,85.83
2022-11-28T21:26:45.370Z,85.96
2022-11-28T21:29:17.879Z,86.16
2022-11-28T21:31:46.176Z,86.41
2022-11-28T21:34:18.656Z,86.31
2022-11-28T21:36:46.755Z,86.30
2022-11-28T21:39:16.987Z,86.42
2022-11-28T21:41:44.781Z,86.51
2022-11-28T21:44:12.478Z,86.49
2022-11-28T21:46:40.294Z,86.66
2022-11-28T21:49:07.919Z,86.73
2022-11-28T21:51:35.562Z,86.69
2022-11-28T21:54:03.773Z,86.70
2022-11-28T21:56:31.424Z,86.79
2022-11-28T21:58:59.050Z,86.81
2022-11-28T22:01:26.824Z,86.75
2022-11-28T22:03:59.032Z,86.67
2022-11-28T22:06:29.682Z,86.54
2022-11-28T22:08:57.804Z,86.58
2022-11-28T22:11:25.868Z,86.56
2022-11-28T22:13:53.967Z,86.56
2022-11-28T22:16:27.746Z,86.49
2022-11-28T22:18:58.687Z,86.31
2022-11-28T22:24:14.476Z,86.18
2022-11-28T22:26:42.140Z,86.27
2022-11-28T22:29:09.863Z,86.23
2022-11-28T22:31:37.820Z,86.19
2022-11-28T22:34:05.527Z,86.29
2022-11-28T22:36:34.557Z,86.50
2022-11-28T22:39:03.668Z,86.29
2022-11-28T22:41:31.345Z,86.46
2022-11-28T22:44:01.633Z,86.47
2022-11-28T22:46:30.211Z,86.38
2022-11-28T22:48:59.499Z,86.32
2022-11-28T22:51:28.332Z,86.32
2022-11-28T22:54:00.810Z,86.45
2022-11-28T22:56:29.552Z,86.42
2022-11-28T22:58:57.196Z,86.29
2022-11-28T23:01:27.742Z,86.38
2022-11-28T23:03:56.289Z,86.34
2022-11-28T23:06:30.121Z,86.20
2022-11-28T23:09:00.174Z,86.10
2022-11-28T23:11:30.712Z,86.06
2022-11-28T23:13:58.383Z,86.15
2022-11-28T23:16:28.538Z,86.09
2022-11-28T23:18:58.923Z,86.20
2022-11-28T23:21:29.446Z,86.13
2022-11-28T23:23:57.059Z,86.16
2022-11-28T23:26:26.521Z,86.02
2022-11-28T23:28:55.590Z,86.16
2022-11-28T23:31:25.883Z,86.11
2022-11-28T23:33:54.005Z,85.96
2022-11-28T23:36:30.699Z,86.08
2022-11-28T23:39:00.531Z,85.96
2022-11-28T23:41:30.217Z,85.98
2022-11-28T23:43:58.846Z,85.75
2022-11-28T23:46:28.117Z,85.92
2022-11-28T23:48:56.034Z,85.79
2022-11-28T23:51:26.216Z,85.65
2022-11-28T23:53:54.931Z,85.88
2022-11-28T23:56:28.631Z,85.66
2022-11-28T23:58:57.851Z,85.64
